• Join FlightAware (Why Join?)
  • Login
  • US Flag 
03:04AM EDT


 

Airport Tracker/Info


-or-


 

Live Flight TrackerFlight Track Log ✈ UAL4843 ✈ 16-Apr-2013 ✈ KBUF - KCLE

Flight Track Log - Related Links

Times and Time Zones

All times are in EDT time to prevent confusion due to time zone crossing. See the UAL4843 flight status page for this flight to view local times or setup timezone preferences in your user account.

Time Position Orientation Groundspeed Altitude Reporting Facility
EDT Latitude Longitude Course Direction KTS MPH feet Rate Location/Type
01:36PM 42.9333 -78.7333 236° Southwest 128 147 1,300  Level Buffalo TRACON
01:37PM 42.9167 -78.7667 236° Southwest 120 138 2,700 1,260 Climbing Buffalo TRACON
01:38PM 42.8667 -78.8000 206° Southwest 158 182 3,900 1,260 Climbing Buffalo TRACON
01:39PM 42.8333 -78.8167 200° South 164 189 5,100 1,320 Climbing Buffalo TRACON
01:40PM 42.7931 -78.8375 201° Southwest 162 186 6,400 1,260 Climbing Cleveland Center
01:41PM 42.7536 -78.8556 199° South 178 205 7,600 1,140 Climbing Cleveland Center
01:42PM 42.7164 -78.8736 200° South 173 199 8,700 1,200 Climbing Cleveland Center
01:43PM 42.6728 -78.8889 194° South 161 185 10,100 1,260 Climbing Cleveland Center
01:44PM 42.6336 -78.9097 201° Southwest 161 185 11,300 900 Climbing Cleveland Center
01:45PM 42.5861 -78.9336 200° South 168 193 12,000 300 Climbing Cleveland Center
01:46PM 42.5300 -78.9603 199° South 191 220 12,000  Level Cleveland Center
01:47PM 42.4639 -78.9931 200° South 226 260 12,000  Level Cleveland Center
01:48PM 42.3892 -79.0286 199° South 249 287 12,000  Level Cleveland Center
01:49PM 42.3339 -79.0833 216° Southwest 256 295 12,000  Level Cleveland Center
01:50PM 42.3033 -79.1569 241° Southwest 240 276 12,000  Level Cleveland Center
01:51PM 42.2731 -79.2364 243° Southwest 240 276 12,000  Level Cleveland Center
01:52PM 42.2447 -79.3097 242° Southwest 240 276 12,000  Level Cleveland Center
01:53PM 42.2164 -79.3833 243° Southwest 229 264 12,000  Level Cleveland Center
01:54PM 42.1900 -79.4539 243° Southwest 215 247 12,000  Level Cleveland Center
01:55PM 42.1636 -79.5214 242° Southwest 215 247 12,000  Level Cleveland Center
01:56PM 42.1369 -79.5892 242° Southwest 215 247 12,000  Level Cleveland Center
01:57PM 42.1106 -79.6594 243° Southwest 215 247 12,000  Level Cleveland Center
01:58PM 42.0839 -79.7269 242° Southwest 215 247 12,000  Level Cleveland Center
01:59PM 42.0572 -79.7917 241° Southwest 215 247 12,000  Level Cleveland Center
02:00PM 42.0308 -79.8647 244° Southwest 215 247 12,000  Level Cleveland Center
02:01PM 42.0019 -79.9378 242° Southwest 220 253 12,000  Level Cleveland Center
02:02PM 41.9711 -80.0133 241° Southwest 225 259 12,000  Level Cleveland Center
02:03PM 41.9444 -80.0864 244° Southwest 225 259 12,000  Level Cleveland Center
02:04PM 41.9156 -80.1592 242° Southwest 220 253 12,000  Level Cleveland Center
02:05PM 41.8886 -80.2317 243° Southwest 220 253 12,000  Level Cleveland Center
02:06PM 41.8597 -80.3072 243° Southwest 220 253 12,000  Level Cleveland Center
02:07PM 41.8283 -80.3797 240° Southwest 220 253 12,000  Level Cleveland Center
02:08PM 41.7972 -80.4606 243° Southwest 220 253 12,000 -60 Level Cleveland Center
02:09PM 41.7703 -80.5331 244° Southwest 220 253 11,900 -300 Descending Cleveland Center
02:10PM 41.7411 -80.6083 243° Southwest 220 253 11,400 -660 Descending Cleveland Center
02:11PM 41.7119 -80.6806 242° Southwest 220 253 10,600 -780 Descending Cleveland Center
02:12PM 41.6825 -80.7500 240° Southwest 214 246 9,900 -780 Descending Cleveland Center
02:13PM 41.6575 -80.8167 243° Southwest 214 246 9,100 -420 Descending Cleveland Center
02:14PM 41.6322 -80.8803 242° Southwest 201 231 9,100  Level Cleveland Center
02:15PM 41.6031 -80.9442 239° Southwest 206 237 9,100  Level Cleveland Center
02:16PM 41.5756 -81.0133 242° Southwest 219 252 9,100  Level Cleveland Center
02:17PM 41.5483 -81.0825 242° Southwest 222 255 9,100  Level Cleveland Center
02:18PM 41.5250 -81.1517 246° West 220 253 9,100 -60 Level Cleveland Center
02:19PM 41.5600 -81.2214 304° West 235 270 9,000 -600 Descending Cleveland Center
02:20PM 41.6011 -81.3050 303° West 235 270 7,900 -960 Descending Cleveland Center
02:21PM 41.6406 -81.3667 311° West 246 283 7,000 -480 Descending Cleveland Center
02:22PM 41.6714 -81.4256 305° West 223 257 7,000  Level Cleveland Center
02:23PM 41.6522 -81.4697 240° Southwest 154 177 7,000 -540 Level Cleveland Center
02:24PM 41.6247 -81.5192 233° Southwest 164 189 6,000 -1,020 Descending Cleveland Center
02:25PM 41.5931 -81.5686 229° Southwest 169 194 5,000 -480 Descending Cleveland Center
02:26PM 41.5614 -81.6156 228° Southwest 142 163 5,000 -360 Level Cleveland Center
02:27PM 41.5317 -81.6650 231° Southwest 165 190 4,300 -780 Descending Cleveland Center
02:28PM 41.5042 -81.7089 230° Southwest 163 188 3,500 -840 Descending Cleveland Center
02:29PM 41.4767 -81.7500 228° Southwest 145 167 2,700 -720 Descending Cleveland Center
02:30PM 41.4533 -81.7883 231° Southwest 116 133 2,000 -660 Descending Cleveland Center
02:31PM 41.4322 -81.8183 227° Southwest 124 143 1,400 -660 Descending Cleveland Center